Time;durP1;ratioP1;P1;durP2;ratioP2;P2;SDS_P1;SDS_P2;PMS_P1;PMS_P2;Temp;Humidity;BMP_temperature;BMP_pressure;BME280_temperature;BME280_humidity;BME280_pressure;Samples;Min_cycle;Max_cycle;Signal;HPM_P1;HPM_P2
2023/01/30 00:01:34;;;;;;;33.58;20.58;;;;;;;;;;5006414;28;20044;-50
2023/01/30 00:04:00;;;;;;;33.58;19.33;;;;;;;;;;5006794;28;20383;-52
2023/01/30 00:06:26;;;;;;;32.88;19.85;;;;;;;;;;5005280;28;20458;-48
2023/01/30 00:08:51;;;;;;;35.47;21.17;;;;;;;;;;5003392;28;20049;-49
2023/01/30 00:11:18;;;;;;;33.38;19.13;;;;;;;;;;5002361;28;20083;-49
2023/01/30 00:13:44;;;;;;;35.67;20.05;;;;;;;;;;5003969;28;20959;-50
2023/01/30 00:16:10;;;;;;;33.13;19.27;;;;;;;;;;5007293;28;20026;-51
2023/01/30 00:18:37;;;;;;;32.90;19.67;;;;;;;;;;5004750;28;20119;-47
2023/01/30 00:21:05;;;;;;;32.60;18.75;;;;;;;;;;5003377;28;20390;-48
2023/01/30 00:23:32;;;;;;;32.17;19.40;;;;;;;;;;5004377;28;20037;-49
2023/01/30 00:25:58;;;;;;;30.65;18.48;;;;;;;;;;5003466;28;20038;-48
2023/01/30 00:28:24;;;;;;;35.70;18.55;;;;;;;;;;5004356;28;20038;-51
2023/01/30 00:30:54;;;;;;;33.03;19.30;;;;;;;;;;5004945;28;20128;-48
2023/01/30 00:33:21;;;;;;;41.03;21.88;;;;;;;;;;5003530;28;20030;-45
2023/01/30 00:35:48;;;;;;;48.30;23.40;;;;;;;;;;5000737;28;20229;-48
2023/01/30 00:38:14;;;;;;;39.90;22.92;;;;;;;;;;5001818;28;20030;-46
2023/01/30 00:40:40;;;;;;;34.45;20.73;;;;;;;;;;5005040;28;20025;-50
2023/01/30 00:48:36;;;;;;;47.20;22.77;;;;;;;;;;5003063;28;20045;-48
2023/01/30 00:51:02;;;;;;;43.10;21.38;;;;;;;;;;5004616;28;20034;-49
2023/01/30 00:53:27;;;;;;;38.92;20.05;;;;;;;;;;5000972;28;20368;-49
2023/01/30 00:55:54;;;;;;;30.75;17.33;;;;;;;;;;5003199;28;20530;-46
2023/01/30 00:58:21;;;;;;;26.55;15.68;;;;;;;;;;5003384;28;20029;-50
2023/01/30 01:00:46;;;;;;;27.08;16.45;;;;;;;;;;5003974;28;20030;-47
2023/01/30 01:03:12;;;;;;;23.40;15.45;;;;;;;;;;5003788;28;20045;-45
2023/01/30 01:05:37;;;;;;;26.45;15.32;;;;;;;;;;5003303;28;20049;-49
2023/01/30 01:08:03;;;;;;;26.38;15.80;;;;;;;;;;5006543;28;20046;-49
2023/01/30 01:10:29;;;;;;;23.88;14.70;;;;;;;;;;5003778;28;20029;-47
2023/01/30 01:12:54;;;;;;;25.38;14.43;;;;;;;;;;5003024;28;20045;-54
2023/01/30 01:15:21;;;;;;;23.40;14.82;;;;;;;;;;5005024;28;20034;-48
2023/01/30 01:17:47;;;;;;;25.52;15.35;;;;;;;;;;5001471;28;20038;-46
2023/01/30 01:20:16;;;;;;;27.60;15.43;;;;;;;;;;5004865;28;20049;-50
2023/01/30 01:22:42;;;;;;;21.33;13.68;;;;;;;;;;5004999;28;20054;-49
2023/01/30 01:25:08;;;;;;;25.20;15.25;;;;;;;;;;5002087;28;20022;-48
2023/01/30 01:27:34;;;;;;;23.98;15.43;;;;;;;;;;5004954;28;20042;-49
2023/01/30 01:29:59;;;;;;;23.73;14.30;;;;;;;;;;5002245;28;20544;-47
2023/01/30 01:32:25;;;;;;;23.05;15.20;;;;;;;;;;5002234;28;20036;-53
2023/01/30 01:34:51;;;;;;;24.92;15.35;;;;;;;;;;5001702;28;20088;-48
2023/01/30 01:37:16;;;;;;;29.05;17.30;;;;;;;;;;5005113;28;20038;-47
2023/01/30 01:42:30;;;;;;;27.45;15.93;;;;;;;;;;5002451;28;20041;-46
2023/01/30 01:45:01;;;;;;;30.27;16.42;;;;;;;;;;5002490;28;20026;-48
2023/01/30 01:47:27;;;;;;;27.60;16.27;;;;;;;;;;5004279;28;20033;-48
2023/01/30 01:49:53;;;;;;;26.15;16.52;;;;;;;;;;5003465;28;20033;-49
2023/01/30 01:52:20;;;;;;;23.13;15.48;;;;;;;;;;5008295;28;20061;-46
2023/01/30 01:54:54;;;;;;;22.42;14.75;;;;;;;;;;5006402;28;21337;-46
2023/01/30 01:57:23;;;;;;;24.65;15.50;;;;;;;;;;5004576;28;20084;-52
2023/01/30 01:59:53;;;;;;;27.17;16.10;;;;;;;;;;5007964;28;20030;-45
2023/01/30 02:02:19;;;;;;;23.63;15.57;;;;;;;;;;5005574;28;20033;-49
2023/01/30 02:05:05;;;;;;;23.40;16.50;;;;;;;;;;5007530;28;20021;-48
2023/01/30 02:07:38;;;;;;;27.92;17.42;;;;;;;;;;5007278;28;20030;-50
2023/01/30 02:10:07;;;;;;;29.88;17.20;;;;;;;;;;5006082;28;20030;-46
2023/01/30 02:12:32;;;;;;;23.15;14.38;;;;;;;;;;5004750;28;20395;-46
2023/01/30 02:14:59;;;;;;;20.52;14.00;;;;;;;;;;5007613;28;20104;-49
2023/01/30 02:17:25;;;;;;;27.20;14.98;;;;;;;;;;5006180;28;20033;-48
2023/01/30 02:19:56;;;;;;;21.27;14.57;;;;;;;;;;5008779;28;20505;-48
2023/01/30 02:22:42;;;;;;;26.13;15.70;;;;;;;;;;5007028;28;20030;-50
2023/01/30 02:25:28;;;;;;;21.13;13.20;;;;;;;;;;5006078;28;20382;-49
2023/01/30 02:28:03;;;;;;;18.38;12.63;;;;;;;;;;5008119;28;20766;-50
2023/01/30 02:30:37;;;;;;;19.52;12.57;;;;;;;;;;5007369;28;20135;-48
2023/01/30 02:33:11;;;;;;;19.02;13.30;;;;;;;;;;5002157;28;20040;-46
2023/01/30 02:35:46;;;;;;;20.38;13.30;;;;;;;;;;5005934;28;20395;-49
2023/01/30 02:38:11;;;;;;;18.95;13.02;;;;;;;;;;5003494;28;20464;-50
2023/01/30 02:41:08;;;;;;;21.58;13.15;;;;;;;;;;5005068;28;20053;-49
2023/01/30 02:43:49;;;;;;;19.00;12.88;;;;;;;;;;4998111;28;20057;-48
2023/01/30 02:46:19;;;;;;;22.50;14.15;;;;;;;;;;5005206;28;20122;-49
2023/01/30 02:48:55;;;;;;;23.73;15.07;;;;;;;;;;5004841;28;20048;-50
2023/01/30 02:51:25;;;;;;;24.15;14.48;;;;;;;;;;5006757;28;20076;-46
2023/01/30 02:53:50;;;;;;;27.35;14.32;;;;;;;;;;5006136;28;20666;-51
2023/01/30 02:56:16;;;;;;;23.70;15.27;;;;;;;;;;5006006;28;20050;-48
2023/01/30 02:59:02;;;;;;;23.08;14.93;;;;;;;;;;5006275;28;20119;-51
2023/01/30 03:01:54;;;;;;;23.90;14.75;;;;;;;;;;5005980;28;20030;-50
2023/01/30 03:04:35;;;;;;;25.05;16.23;;;;;;;;;;5006306;28;20068;-48
2023/01/30 03:07:26;;;;;;;28.98;15.18;;;;;;;;;;5006316;28;20045;-47
2023/01/30 03:10:21;;;;;;;24.63;15.82;;;;;;;;;;5003172;28;20129;-48
2023/01/30 03:13:10;;;;;;;27.77;15.50;;;;;;;;;;5005437;28;20145;-50
2023/01/30 03:15:52;;;;;;;33.42;17.35;;;;;;;;;;5001161;28;20543;-47
2023/01/30 03:18:19;;;;;;;25.25;15.57;;;;;;;;;;5004773;28;20050;-50
2023/01/30 03:20:45;;;;;;;26.40;15.27;;;;;;;;;;5006497;28;20037;-47
2023/01/30 03:23:12;;;;;;;23.58;16.13;;;;;;;;;;5005528;28;20081;-46
2023/01/30 03:25:40;;;;;;;27.92;16.58;;;;;;;;;;5006056;28;20368;-51
2023/01/30 03:28:07;;;;;;;26.95;16.58;;;;;;;;;;5004136;28;20034;-49
2023/01/30 03:30:32;;;;;;;23.30;14.68;;;;;;;;;;5004280;28;20120;-49
2023/01/30 03:32:57;;;;;;;25.35;16.08;;;;;;;;;;5004358;28;20466;-51
2023/01/30 03:35:23;;;;;;;27.65;15.35;;;;;;;;;;5006219;28;20101;-51
2023/01/30 03:37:48;;;;;;;29.80;15.65;;;;;;;;;;5005134;28;20499;-47
2023/01/30 03:40:15;;;;;;;21.83;14.88;;;;;;;;;;5004514;28;20116;-47
2023/01/30 03:42:41;;;;;;;29.50;15.65;;;;;;;;;;5003300;28;20396;-49
2023/01/30 03:45:08;;;;;;;28.10;15.40;;;;;;;;;;5005181;28;20042;-48
2023/01/30 03:47:33;;;;;;;25.17;13.93;;;;;;;;;;5005869;28;20045;-46
2023/01/30 03:49:58;;;;;;;28.10;14.52;;;;;;;;;;5007288;28;20032;-47
2023/01/30 03:52:24;;;;;;;25.45;15.00;;;;;;;;;;5005559;28;20483;-47
2023/01/30 03:54:49;;;;;;;25.48;15.68;;;;;;;;;;5008319;28;20072;-47
2023/01/30 03:57:14;;;;;;;24.52;15.38;;;;;;;;;;5003819;28;20506;-49
2023/01/30 03:59:40;;;;;;;20.80;13.80;;;;;;;;;;5004416;28;20034;-48
2023/01/30 04:02:05;;;;;;;23.38;14.93;;;;;;;;;;5006256;28;20033;-51
2023/01/30 04:04:31;;;;;;;23.02;14.55;;;;;;;;;;5003803;28;20034;-46
2023/01/30 04:06:56;;;;;;;24.52;15.40;;;;;;;;;;5004230;28;20022;-49
2023/01/30 04:09:21;;;;;;;23.33;15.25;;;;;;;;;;5002363;28;20391;-49
2023/01/30 04:11:47;;;;;;;23.63;13.32;;;;;;;;;;5006368;28;20065;-50
2023/01/30 04:14:12;;;;;;;21.15;13.70;;;;;;;;;;5004687;28;20050;-50
2023/01/30 04:16:39;;;;;;;25.70;14.38;;;;;;;;;;5004899;28;20022;-48
2023/01/30 04:19:04;;;;;;;23.92;14.73;;;;;;;;;;5003903;28;20081;-47
2023/01/30 04:21:30;;;;;;;20.45;13.57;;;;;;;;;;5006750;28;20127;-48
2023/01/30 04:23:55;;;;;;;22.02;14.68;;;;;;;;;;5003136;28;20042;-47
2023/01/30 04:26:20;;;;;;;22.63;14.23;;;;;;;;;;5004069;28;20022;-51
2023/01/30 04:28:46;;;;;;;18.38;12.80;;;;;;;;;;5005040;28;20068;-47
2023/01/30 04:31:11;;;;;;;22.30;13.48;;;;;;;;;;5004553;28;20025;-51
2023/01/30 04:33:38;;;;;;;21.70;13.63;;;;;;;;;;5002231;28;20042;-52
2023/01/30 04:36:06;;;;;;;21.33;13.23;;;;;;;;;;5004244;28;20026;-48
2023/01/30 04:38:33;;;;;;;19.23;12.80;;;;;;;;;;5003139;28;20506;-47
2023/01/30 04:40:58;;;;;;;19.80;12.98;;;;;;;;;;5004557;28;20037;-48
2023/01/30 04:43:25;;;;;;;21.60;13.68;;;;;;;;;;5005210;28;20030;-48
2023/01/30 04:45:51;;;;;;;21.15;13.00;;;;;;;;;;5004536;28;20388;-47
2023/01/30 04:48:18;;;;;;;19.58;13.70;;;;;;;;;;5001731;28;20042;-47
2023/01/30 04:50:47;;;;;;;16.23;11.95;;;;;;;;;;5001233;28;20038;-49
2023/01/30 04:53:13;;;;;;;19.55;12.45;;;;;;;;;;5004479;28;20046;-51
2023/01/30 04:55:39;;;;;;;19.25;12.45;;;;;;;;;;5005305;28;20034;-52
2023/01/30 04:58:04;;;;;;;22.33;13.18;;;;;;;;;;5003576;28;20099;-47
2023/01/30 05:00:30;;;;;;;21.23;12.75;;;;;;;;;;5005064;28;20037;-52
2023/01/30 05:02:55;;;;;;;19.77;12.98;;;;;;;;;;5001963;28;20049;-48
2023/01/30 05:05:22;;;;;;;19.80;12.30;;;;;;;;;;5001070;28;20125;-49
2023/01/30 05:07:48;;;;;;;18.60;12.23;;;;;;;;;;5002858;28;20077;-50
2023/01/30 05:10:13;;;;;;;18.95;12.05;;;;;;;;;;5003875;28;20046;-47
2023/01/30 05:12:39;;;;;;;17.08;12.25;;;;;;;;;;5004915;28;20455;-50
2023/01/30 05:15:05;;;;;;;20.85;12.32;;;;;;;;;;5004616;28;20522;-51
2023/01/30 05:17:31;;;;;;;21.10;13.02;;;;;;;;;;4999484;28;20038;-49
2023/01/30 05:19:56;;;;;;;19.63;12.43;;;;;;;;;;5005982;28;20109;-51
2023/01/30 05:22:22;;;;;;;20.77;13.40;;;;;;;;;;5002064;28;20029;-47
2023/01/30 05:24:47;;;;;;;22.50;14.45;;;;;;;;;;5003537;28;20030;-46
2023/01/30 05:27:12;;;;;;;25.35;14.80;;;;;;;;;;5007130;28;20026;-49
2023/01/30 05:29:38;;;;;;;27.17;16.08;;;;;;;;;;5001338;28;20034;-46
2023/01/30 05:32:03;;;;;;;28.45;14.90;;;;;;;;;;5009040;28;20026;-48
2023/01/30 05:34:29;;;;;;;23.90;14.73;;;;;;;;;;5009050;28;20042;-49
2023/01/30 05:36:54;;;;;;;25.25;14.63;;;;;;;;;;5007273;28;20483;-48
2023/01/30 05:39:19;;;;;;;27.50;14.90;;;;;;;;;;5009010;28;20119;-46
2023/01/30 05:41:45;;;;;;;24.58;14.77;;;;;;;;;;5005917;28;20752;-48
2023/01/30 05:44:10;;;;;;;25.92;14.65;;;;;;;;;;5008622;28;20034;-46
2023/01/30 05:46:36;;;;;;;24.00;15.70;;;;;;;;;;5009025;28;20164;-49
2023/01/30 05:49:03;;;;;;;24.98;14.32;;;;;;;;;;5001119;28;20131;-47
2023/01/30 05:51:28;;;;;;;27.00;14.00;;;;;;;;;;5006234;28;20034;-51
2023/01/30 05:53:54;;;;;;;22.98;14.13;;;;;;;;;;5008480;28;20096;-46
2023/01/30 05:56:20;;;;;;;21.20;13.05;;;;;;;;;;5007855;28;20050;-51
2023/01/30 05:58:53;;;;;;;21.85;14.15;;;;;;;;;;5001038;28;20137;-46
2023/01/30 06:01:18;;;;;;;17.98;12.57;;;;;;;;;;5008747;28;20028;-53
2023/01/30 06:03:44;;;;;;;21.67;12.65;;;;;;;;;;5004135;28;20049;-48
2023/01/30 06:06:11;;;;;;;22.67;13.18;;;;;;;;;;5011200;28;20030;-52
2023/01/30 06:08:37;;;;;;;17.75;11.77;;;;;;;;;;5002915;28;20617;-48
2023/01/30 06:11:09;;;;;;;18.27;12.45;;;;;;;;;;5007414;28;20022;-48
2023/01/30 06:13:35;;;;;;;;;;;;;;;;;;5007809;28;20403;-48
2023/01/30 06:16:00;;;;;;;23.45;12.43;;;;;;;;;;5005601;28;19918;-49
2023/01/30 06:18:26;;;;;;;21.35;12.70;;;;;;;;;;4998989;28;20039;-47
2023/01/30 06:20:52;;;;;;;20.25;13.48;;;;;;;;;;5003683;28;20056;-47
2023/01/30 06:23:19;;;;;;;26.02;11.75;;;;;;;;;;5003418;28;20041;-50
2023/01/30 06:25:45;;;;;;;21.08;13.05;;;;;;;;;;5007683;28;20030;-54
2023/01/30 06:28:11;;;;;;;22.95;12.88;;;;;;;;;;5007337;28;20041;-54
2023/01/30 06:30:36;;;;;;;21.50;13.07;;;;;;;;;;5005274;28;20037;-56
2023/01/30 06:33:02;;;;;;;22.95;13.40;;;;;;;;;;5004601;28;20041;-54
2023/01/30 06:35:27;;;;;;;19.80;12.73;;;;;;;;;;5001121;28;20040;-54
2023/01/30 06:37:52;;;;;;;21.35;13.05;;;;;;;;;;5005010;28;20589;-50
2023/01/30 06:40:18;;;;;;;19.20;12.35;;;;;;;;;;5001519;28;20030;-51
2023/01/30 06:42:47;;;;;;;21.58;13.80;;;;;;;;;;5004231;28;20494;-48
2023/01/30 06:45:14;;;;;;;24.70;15.10;;;;;;;;;;5003985;28;20038;-47
2023/01/30 06:47:48;;;;;;;26.77;15.88;;;;;;;;;;5008340;28;20046;-52
2023/01/30 06:50:14;;;;;;;29.88;18.75;;;;;;;;;;5005893;28;20034;-53
2023/01/30 06:52:41;;;;;;;31.33;20.35;;;;;;;;;;5005085;28;20050;-52
2023/01/30 06:55:08;;;;;;;32.00;19.13;;;;;;;;;;5003809;28;20045;-49
2023/01/30 06:57:33;;;;;;;31.05;19.15;;;;;;;;;;5005874;28;20120;-50
2023/01/30 06:59:59;;;;;;;31.23;20.60;;;;;;;;;;4999051;28;20053;-53
2023/01/30 07:02:24;;;;;;;27.15;18.35;;;;;;;;;;5003050;28;20087;-47
2023/01/30 07:04:49;;;;;;;28.33;16.90;;;;;;;;;;5007858;28;20034;-49
2023/01/30 07:07:15;;;;;;;23.50;16.40;;;;;;;;;;5004687;28;20081;-48
2023/01/30 07:09:40;;;;;;;23.98;15.75;;;;;;;;;;5004098;28;20045;-50
2023/01/30 07:12:05;;;;;;;26.35;15.60;;;;;;;;;;5001405;28;20594;-52
2023/01/30 07:14:31;;;;;;;23.25;15.68;;;;;;;;;;5005124;28;20040;-47
2023/01/30 07:16:56;;;;;;;37.45;20.10;;;;;;;;;;5001341;28;20471;-52
2023/01/30 07:19:22;;;;;;;39.28;20.80;;;;;;;;;;5002303;28;20042;-49
2023/01/30 07:21:47;;;;;;;41.45;21.75;;;;;;;;;;5004003;28;20489;-51
2023/01/30 07:24:12;;;;;;;51.85;22.58;;;;;;;;;;5006799;28;20483;-51
2023/01/30 07:26:38;;;;;;;77.57;30.65;;;;;;;;;;5005859;28;20021;-50
2023/01/30 07:29:03;;;;;;;70.80;32.42;;;;;;;;;;5002518;28;20041;-49
2023/01/30 07:31:28;;;;;;;75.35;33.92;;;;;;;;;;5000380;28;20030;-48
2023/01/30 07:33:54;;;;;;;90.25;37.83;;;;;;;;;;5004583;28;20041;-51
2023/01/30 07:36:19;;;;;;;93.30;41.65;;;;;;;;;;5004302;28;20032;-50
2023/01/30 07:38:48;;;;;;;96.95;43.67;;;;;;;;;;5001492;28;20057;-54
2023/01/30 07:41:13;;;;;;;81.80;37.20;;;;;;;;;;5003966;28;20045;-48
2023/01/30 07:43:39;;;;;;;72.40;32.42;;;;;;;;;;5005248;28;20034;-50
2023/01/30 07:46:04;;;;;;;68.32;30.55;;;;;;;;;;5006541;28;20422;-50
2023/01/30 07:48:29;;;;;;;62.17;29.13;;;;;;;;;;5002374;28;20042;-52
2023/01/30 07:50:56;;;;;;;68.95;27.15;;;;;;;;;;5005182;28;20440;-50
2023/01/30 07:53:21;;;;;;;48.15;24.35;;;;;;;;;;5005291;28;20049;-49
2023/01/30 07:55:46;;;;;;;43.78;22.35;;;;;;;;;;5004445;28;20030;-54
2023/01/30 07:58:14;;;;;;;40.78;22.10;;;;;;;;;;5005083;28;20038;-49
2023/01/30 08:00:39;;;;;;;38.80;21.15;;;;;;;;;;5006551;28;20053;-53
2023/01/30 08:03:05;;;;;;;32.58;19.02;;;;;;;;;;5006806;28;20030;-54
2023/01/30 08:05:31;;;;;;;39.97;19.50;;;;;;;;;;5003922;28;20038;-50
2023/01/30 08:07:56;;;;;;;34.80;19.98;;;;;;;;;;5005594;28;20490;-49
2023/01/30 08:10:22;;;;;;;30.65;18.85;;;;;;;;;;5004301;28;20034;-46
2023/01/30 08:12:50;;;;;;;28.58;19.63;;;;;;;;;;5006389;28;20046;-52
2023/01/30 08:15:15;;;;;;;29.30;19.02;;;;;;;;;;5002938;28;20037;-52
2023/01/30 08:17:41;;;;;;;28.83;17.95;;;;;;;;;;5006229;28;20042;-48
2023/01/30 08:20:07;;;;;;;32.38;19.17;;;;;;;;;;5005353;28;20034;-51
2023/01/30 08:22:32;;;;;;;30.35;17.58;;;;;;;;;;4999977;28;20106;-51
2023/01/30 08:24:58;;;;;;;25.38;15.50;;;;;;;;;;5006211;28;20108;-55
2023/01/30 08:27:23;;;;;;;21.08;14.23;;;;;;;;;;5003370;28;20034;-50
2023/01/30 08:29:48;;;;;;;22.52;14.15;;;;;;;;;;5003622;28;20036;-54
2023/01/30 08:32:14;;;;;;;22.15;15.00;;;;;;;;;;5004463;28;20065;-46
2023/01/30 08:34:39;;;;;;;21.50;14.07;;;;;;;;;;5004853;28;20036;-50
2023/01/30 08:37:05;;;;;;;19.90;13.38;;;;;;;;;;4999377;28;20383;-46
2023/01/30 08:39:30;;;;;;;19.63;13.15;;;;;;;;;;5007143;28;20038;-49
2023/01/30 08:41:55;;;;;;;21.33;13.85;;;;;;;;;;5005554;28;20049;-48
2023/01/30 08:44:21;;;;;;;22.33;13.43;;;;;;;;;;5006158;28;20124;-48
2023/01/30 08:46:46;;;;;;;26.80;12.65;;;;;;;;;;5004031;28;20467;-52
2023/01/30 08:49:12;;;;;;;21.60;13.35;;;;;;;;;;5005165;28;20598;-49
2023/01/30 08:51:37;;;;;;;19.00;13.18;;;;;;;;;;5004828;28;20524;-48
2023/01/30 08:54:03;;;;;;;16.02;12.18;;;;;;;;;;5002617;28;20038;-50
2023/01/30 08:56:28;;;;;;;16.40;11.30;;;;;;;;;;5003866;28;20038;-51
2023/01/30 08:58:54;;;;;;;16.33;12.13;;;;;;;;;;5005397;28;20491;-49
2023/01/30 09:01:19;;;;;;;14.65;10.80;;;;;;;;;;5002692;28;20018;-50
2023/01/30 09:03:45;;;;;;;15.77;11.25;;;;;;;;;;5004422;28;20371;-49
2023/01/30 09:06:10;;;;;;;16.65;11.02;;;;;;;;;;5006285;28;20425;-49
2023/01/30 09:08:35;;;;;;;16.35;11.45;;;;;;;;;;5003825;28;20522;-48
2023/01/30 09:11:04;;;;;;;19.83;11.70;;;;;;;;;;5001121;28;20037;-49
2023/01/30 09:13:30;;;;;;;16.17;10.90;;;;;;;;;;5002526;28;20073;-49
2023/01/30 09:15:57;;;;;;;14.23;10.55;;;;;;;;;;5003961;28;20091;-46
2023/01/30 09:18:23;;;;;;;17.45;11.43;;;;;;;;;;5004530;28;20049;-48
2023/01/30 09:20:48;;;;;;;15.30;10.82;;;;;;;;;;5004594;28;20034;-49
2023/01/30 09:23:14;;;;;;;19.13;11.98;;;;;;;;;;5005385;28;20399;-48
2023/01/30 09:25:39;;;;;;;17.08;11.57;;;;;;;;;;5004279;28;20529;-48
2023/01/30 09:28:05;;;;;;;17.88;11.00;;;;;;;;;;5005800;28;20534;-48
2023/01/30 09:30:30;;;;;;;15.05;11.40;;;;;;;;;;5000066;28;20049;-50
2023/01/30 09:32:55;;;;;;;15.63;10.57;;;;;;;;;;5016834;28;20053;-48
2023/01/30 09:35:21;;;;;;;15.80;10.90;;;;;;;;;;5005438;28;20093;-49
2023/01/30 09:37:51;;;;;;;17.75;11.30;;;;;;;;;;5004245;28;20065;-47
2023/01/30 09:40:21;;;;;;;18.08;10.07;;;;;;;;;;5004891;28;20426;-50
2023/01/30 09:43:33;;;;;;;15.52;11.30;;;;;;;;;;5000866;28;20046;-49
2023/01/30 09:46:22;;;;;;;13.38;10.57;;;;;;;;;;4998775;28;20119;-49
2023/01/30 09:48:53;;;;;;;12.48;9.55;;;;;;;;;;5004028;28;20049;-47
2023/01/30 09:51:46;;;;;;;13.88;9.45;;;;;;;;;;5001543;28;20037;-50
2023/01/30 09:54:25;;;;;;;12.88;9.88;;;;;;;;;;5005410;28;20514;-52
2023/01/30 09:57:00;;;;;;;12.82;10.23;;;;;;;;;;5003318;28;20030;-53
2023/01/30 09:59:40;;;;;;;14.35;10.23;;;;;;;;;;4997066;28;20050;-49
2023/01/30 10:02:19;;;;;;;14.88;10.23;;;;;;;;;;5002307;28;20112;-52
2023/01/30 10:04:46;;;;;;;12.38;9.70;;;;;;;;;;4998171;28;20077;-47
2023/01/30 10:07:12;;;;;;;17.80;9.82;;;;;;;;;;5000858;28;20097;-49
2023/01/30 10:10:00;;;;;;;15.25;9.98;;;;;;;;;;5002662;28;20754;-50
2023/01/30 10:12:39;;;;;;;15.35;9.93;;;;;;;;;;5004137;28;20579;-49
2023/01/30 10:15:27;;;;;;;13.02;9.40;;;;;;;;;;5005283;28;20026;-48
2023/01/30 10:18:24;;;;;;;10.13;8.50;;;;;;;;;;5008296;28;20679;-49
2023/01/30 10:21:19;;;;;;;17.13;10.00;;;;;;;;;;5005574;28;20042;-50
2023/01/30 10:24:21;;;;;;;13.75;9.55;;;;;;;;;;5004516;28;20073;-48
2023/01/30 10:26:47;;;;;;;13.20;9.77;;;;;;;;;;4998825;28;20685;-47
2023/01/30 10:29:29;;;;;;;14.05;9.52;;;;;;;;;;5006364;28;20083;-48
2023/01/30 10:32:31;;;;;;;21.70;9.38;;;;;;;;;;4997968;28;20061;-49
2023/01/30 10:35:19;;;;;;;18.15;10.15;;;;;;;;;;5011079;28;20041;-48
2023/01/30 10:37:47;;;;;;;13.35;9.55;;;;;;;;;;4998648;28;20049;-48
2023/01/30 10:40:23;;;;;;;15.20;9.93;;;;;;;;;;4997675;28;20034;-49
2023/01/30 10:43:00;;;;;;;17.73;10.55;;;;;;;;;;4992547;28;20498;-48
2023/01/30 10:45:49;;;;;;;13.93;9.40;;;;;;;;;;4992757;28;20034;-49
2023/01/30 10:48:42;;;;;;;12.73;9.98;;;;;;;;;;4931153;29;20044;-50
2023/01/30 10:51:29;;;;;;;13.57;9.27;;;;;;;;;;4934593;29;20047;-51
2023/01/30 10:54:14;;;;;;;13.43;10.23;;;;;;;;;;4938606;29;20151;-48
2023/01/30 10:57:21;;;;;;;11.70;9.18;;;;;;;;;;4938931;29;20095;-47
2023/01/30 11:00:09;;;;;;;9.82;8.68;;;;;;;;;;4899685;29;20048;-49
2023/01/30 11:02:53;;;;;;;12.45;8.75;;;;;;;;;;4898724;29;20100;-53
2023/01/30 11:05:24;;;;;;;11.00;8.45;;;;;;;;;;4910116;29;20044;-49
2023/01/30 11:07:49;;;;;;;15.70;8.50;;;;;;;;;;4903024;29;20406;-51
2023/01/30 11:10:18;;;;;;;18.38;9.65;;;;;;;;;;4892031;29;20048;-51
2023/01/30 11:12:43;;;;;;;12.27;9.18;;;;;;;;;;4888656;29;20049;-46
2023/01/30 11:15:10;;;;;;;12.10;8.48;;;;;;;;;;4890288;29;20088;-45
2023/01/30 11:17:40;;;;;;;12.85;8.57;;;;;;;;;;4887542;29;20127;-50
2023/01/30 11:20:06;;;;;;;10.13;8.32;;;;;;;;;;4891587;29;20084;-51
2023/01/30 11:22:33;;;;;;;10.48;8.30;;;;;;;;;;4889894;29;20024;-48
2023/01/30 11:25:06;;;;;;;33.10;18.02;;;;;;;;;;4901981;29;20063;-46
2023/01/30 11:27:33;;;;;;;28.13;16.80;;;;;;;;;;4928161;28;20040;-48
2023/01/30 11:30:05;;;;;;;39.83;25.77;;;;;;;;;;4947596;28;20067;-48
2023/01/30 11:32:30;;;;;;;11.50;9.50;;;;;;;;;;4945167;29;20142;-50
2023/01/30 11:35:08;;;;;;;11.18;8.10;;;;;;;;;;4928152;29;20028;-47
2023/01/30 11:37:36;;;;;;;12.32;8.85;;;;;;;;;;4981926;28;20054;-48
2023/01/30 11:40:17;;;;;;;12.35;8.70;;;;;;;;;;4997945;28;20479;-46
2023/01/30 11:42:45;;;;;;;11.13;7.95;;;;;;;;;;4986099;28;20054;-47
2023/01/30 11:45:11;;;;;;;13.82;8.23;;;;;;;;;;4986455;28;20042;-47
2023/01/30 11:47:45;;;;;;;11.13;8.10;;;;;;;;;;4986187;28;20046;-45
2023/01/30 11:50:16;;;;;;;9.95;7.70;;;;;;;;;;4987027;28;20562;-47
2023/01/30 11:52:43;;;;;;;13.90;7.80;;;;;;;;;;4987684;28;20066;-48
2023/01/30 11:55:13;;;;;;;13.30;9.38;;;;;;;;;;4985046;28;20372;-49
2023/01/30 11:57:52;;;;;;;19.10;7.78;;;;;;;;;;4983744;28;20490;-50
2023/01/30 12:00:22;;;;;;;11.52;8.45;;;;;;;;;;4986455;28;20046;-48
2023/01/30 12:02:48;;;;;;;9.07;7.78;;;;;;;;;;4987393;28;20059;-53
2023/01/30 12:05:31;;;;;;;13.13;7.53;;;;;;;;;;4986796;28;20085;-48
2023/01/30 12:08:15;;;;;;;15.88;8.10;;;;;;;;;;4984496;28;20128;-47
2023/01/30 12:10:43;;;;;;;12.80;6.93;;;;;;;;;;4985820;28;20583;-47
2023/01/30 12:13:44;;;;;;;16.20;9.07;;;;;;;;;;4980034;28;20127;-47
2023/01/30 12:16:17;;;;;;;8.70;6.35;;;;;;;;;;5001989;28;20037;-45
2023/01/30 12:19:04;;;;;;;7.93;6.35;;;;;;;;;;5002872;28;20056;-45
2023/01/30 12:21:48;;;;;;;7.43;6.05;;;;;;;;;;5001353;28;20036;-46
2023/01/30 12:24:33;;;;;;;8.60;6.40;;;;;;;;;;5003909;28;20042;-47
2023/01/30 12:27:25;;;;;;;9.75;6.50;;;;;;;;;;5000513;28;20468;-46
2023/01/30 12:30:07;;;;;;;8.50;5.97;;;;;;;;;;5000002;28;20056;-47
2023/01/30 12:32:34;;;;;;;5.88;5.18;;;;;;;;;;4999716;28;20034;-47
2023/01/30 12:35:00;;;;;;;8.98;5.95;;;;;;;;;;5001033;28;20029;-52
2023/01/30 12:37:43;;;;;;;10.50;6.05;;;;;;;;;;5005320;28;20060;-49
2023/01/30 12:40:29;;;;;;;11.43;5.07;;;;;;;;;;5002044;28;20088;-48
2023/01/30 12:43:21;;;;;;;7.40;5.68;;;;;;;;;;4999098;28;20529;-44
2023/01/30 12:46:02;;;;;;;18.88;6.50;;;;;;;;;;5015295;28;20104;-49
2023/01/30 12:48:32;;;;;;;9.10;5.32;;;;;;;;;;5001895;28;20080;-47
2023/01/30 12:51:23;;;;;;;7.53;4.85;;;;;;;;;;5001489;28;20032;-45
2023/01/30 12:54:13;;;;;;;8.90;4.85;;;;;;;;;;4988919;28;20084;-48
2023/01/30 12:56:47;;;;;;;14.40;4.82;;;;;;;;;;4983206;28;20042;-49
2023/01/30 12:59:31;;;;;;;7.05;5.00;;;;;;;;;;4983856;28;20046;-47
2023/01/30 13:02:22;;;;;;;8.73;4.60;;;;;;;;;;4984465;28;20055;-45
2023/01/30 13:05:04;;;;;;;6.57;5.10;;;;;;;;;;4981762;28;20046;-47
2023/01/30 13:07:34;;;;;;;12.02;5.10;;;;;;;;;;4983263;28;20018;-49
2023/01/30 13:10:13;;;;;;;18.20;5.97;;;;;;;;;;4985469;28;20104;-48
2023/01/30 13:13:03;;;;;;;6.15;4.15;;;;;;;;;;4982626;28;20044;-49
2023/01/30 13:15:40;;;;;;;5.90;3.92;;;;;;;;;;4982061;28;20036;-44
2023/01/30 13:18:19;;;;;;;8.02;4.05;;;;;;;;;;4982431;28;20407;-50
2023/01/30 13:20:51;;;;;;;19.02;4.57;;;;;;;;;;4985358;28;20034;-46
2023/01/30 13:23:45;;;;;;;8.25;3.65;;;;;;;;;;4981822;28;20129;-47
2023/01/30 13:26:23;;;;;;;6.93;4.00;;;;;;;;;;4982293;28;20038;-52
2023/01/30 13:28:55;;;;;;;5.68;4.28;;;;;;;;;;4965322;28;20051;-55
2023/01/30 13:31:23;;;;;;;9.85;3.80;;;;;;;;;;4981593;28;20038;-52
2023/01/30 13:34:03;;;;;;;4.43;3.70;;;;;;;;;;4996134;28;20430;-53
2023/01/30 13:36:42;;;;;;;3.50;3.10;;;;;;;;;;5003573;28;20514;-45
2023/01/30 13:39:26;;;;;;;8.20;4.20;;;;;;;;;;5005116;28;20045;-46
2023/01/30 13:41:55;;;;;;;6.35;4.00;;;;;;;;;;5003416;28;20038;-48
2023/01/30 13:44:26;;;;;;;4.00;3.58;;;;;;;;;;5002894;28;20074;-48
2023/01/30 13:46:54;;;;;;;7.15;4.30;;;;;;;;;;5005788;28;20026;-51
2023/01/30 13:49:25;;;;;;;12.70;4.15;;;;;;;;;;5007761;28;20072;-45
2023/01/30 13:51:57;;;;;;;7.60;4.38;;;;;;;;;;5006960;28;20029;-49
2023/01/30 13:54:31;;;;;;;6.22;3.13;;;;;;;;;;5007160;28;20514;-45
2023/01/30 13:57:15;;;;;;;4.97;4.40;;;;;;;;;;5005835;28;20042;-50
2023/01/30 14:00:17;;;;;;;3.90;3.55;;;;;;;;;;5007475;28;20034;-48
2023/01/30 14:03:07;;;;;;;7.60;4.15;;;;;;;;;;5005981;28;20053;-50
2023/01/30 14:06:01;;;;;;;12.18;4.05;;;;;;;;;;5008070;28;20511;-48
2023/01/30 14:08:32;;;;;;;11.60;4.20;;;;;;;;;;5006255;28;20080;-47
2023/01/30 14:10:58;;;;;;;9.10;4.05;;;;;;;;;;5006018;28;20049;-48
2023/01/30 14:13:26;;;;;;;5.38;4.65;;;;;;;;;;5002344;28;20038;-50
2023/01/30 14:15:54;;;;;;;7.22;3.67;;;;;;;;;;5004468;28;20493;-45
2023/01/30 14:18:27;;;;;;;5.88;4.45;;;;;;;;;;5006797;28;20491;-46
2023/01/30 14:21:19;;;;;;;10.18;4.07;;;;;;;;;;5002805;28;20038;-45
2023/01/30 14:23:59;;;;;;;5.38;4.30;;;;;;;;;;5006744;28;20038;-49
2023/01/30 14:26:46;;;;;;;6.75;4.15;;;;;;;;;;5001689;28;20069;-46
2023/01/30 14:29:37;;;;;;;7.72;4.45;;;;;;;;;;5004910;28;20030;-48
2023/01/30 14:32:08;;;;;;;6.70;4.70;;;;;;;;;;5006068;28;20052;-46
2023/01/30 14:34:39;;;;;;;6.88;4.32;;;;;;;;;;5004156;28;20096;-49
2023/01/30 14:37:29;;;;;;;12.77;4.88;;;;;;;;;;5004190;28;20044;-47
2023/01/30 14:39:56;;;;;;;7.18;4.63;;;;;;;;;;5000354;28;20069;-52
2023/01/30 14:42:24;;;;;;;12.50;5.30;;;;;;;;;;5006384;28;20030;-45
2023/01/30 14:44:58;;;;;;;13.35;5.90;;;;;;;;;;5006435;28;20141;-47
2023/01/30 14:47:25;;;;;;;13.68;4.55;;;;;;;;;;5003974;28;20079;-46
2023/01/30 14:49:51;;;;;;;17.50;4.20;;;;;;;;;;4986141;28;20026;-48
2023/01/30 14:52:41;;;;;;;7.05;5.38;;;;;;;;;;4987208;28;20031;-47
2023/01/30 14:55:17;;;;;;;4.63;4.20;;;;;;;;;;4983997;28;20411;-47